Tiempo atmosférico en la estación meteorológica de Machichaco, Bizkaia (93 m.)



Fecha
DESCASC
Temp. máxima en grados centígrados (hora)
DESCASC
Temp. mínima en grados centígrados (hora)
DESCASC
Temp. media en grados centígrados
DESCASC
Racha de viento máxima en m/sg (hora)
DESCASC
Velocidad máxima media en intervalos de 10 minutos(hora)
DESCASC
Precipitaciones diarias en mm
DESCASC
Precipitaciones de 00:00 a 06:00 en mm
DESCASC
Precipitaciones de 06:00 a 12:00 en mm
DESCASC
Precipitaciones de 12:00 a 18:00 en mm
DESCASC
Precipitaciones de 18:00 a 24:00 en mm
DESCASC
23-06-2019 27.7 (07:10) 17 (23:40) 22.4 17.78 (07:30) 12.5 (07:50) 0 0 0 0 0
22-06-2019 22.1 (22:30) 12.4 (04:40) 17.3 11.11 (10:10) 8.89 (10:10) 0 0 0 0 0
21-06-2019 18.8 (19:30) 13.3 (23:50) 16 8.61 (14:20) 6.67 (14:20) 4 0.4 3.6 0 0
20-06-2019 19.1 (14:50) 15.1 (00:00) 17.1 9.17 (00:20) 8.06 (00:30) 0 0 0 0 0
19-06-2019 21.9 (12:50) 15.2 (00:00) 18.5 -- (--) -- (--) 0 0 0 0 0
18-06-2019 26 (16:20) 15 (00:00) 20.5 19.17 (17:00) 15.28 (18:30) 0 0 0 0 0
17-06-2019 19.5 (15:10) 13.6 (00:00) 16.6 15.56 (20:50) 12.78 (20:40) 0 0 0 0 0
16-06-2019 19 (16:40) 12.6 (00:00) 15.8 10.28 (10:50) 8.89 (13:10) 0 0 0 0 0
15-06-2019 19 (14:30) 12.9 (00:00) 15.9 7.5 (00:10) 6.39 (00:20) 0 0 0 0 0
14-06-2019 15.7 (15:20) 11.6 (00:00) 13.7 8.33 (23:40) 6.11 (23:50) 0.2 0 0 0.2 0
13-06-2019 16.6 (12:10) 11.5 (00:00) 14.1 8.06 (19:40) 6.67 (19:40) 1.2 0 0 0 1.2
12-06-2019 15.4 (19:30) 11.6 (00:00) 13.5 19.44 (10:50) 15.28 (15:10) 1.2 1.2 0 0 0
11-06-2019 14.8 (19:00) 10.5 (00:00) 12.7 22.5 (20:40) 18.89 (19:50) 25 19 5.4 0.6 0
10-06-2019 15.9 (15:10) 11.7 (00:00) 13.8 9.17 (00:50) 7.22 (00:50) 1.8 0 0 0 1.8
09-06-2019 18.1 (10:20) 13.4 (00:00) 15.8 14.17 (14:50) 11.39 (14:50) 0 0 0 0 0
08-06-2019 17 (14:30) 11.4 (00:00) 14.2 10.28 (00:30) 8.61 (15:40) 0 0 0 0 0
07-06-2019 21 (00:00) 14.3 (00:00) 17.7 24.17 (13:20) 20.28 (13:10) 0 0 0 0 0
06-06-2019 24.3 (22:10) 11.1 (00:00) 17.7 15 (22:50) 10 (14:50) 0 0 0 0 0
05-06-2019 15.3 (18:00) 10.9 (00:00) 13.1 25 (12:50) 21.67 (12:50) 27.6 5 17.4 5.2 0
04-06-2019 20.1 (14:50) 13.7 (00:00) 16.9 19.72 (17:00) 16.94 (17:00) 1 0 0 0 1
03-06-2019 20.6 (13:30) 14.9 (00:00) 17.8 8.61 (01:10) 5.83 (00:40) 0 0 0 0 0
02-06-2019 24.5 (12:00) 15.9 (00:00) 20.2 11.11 (02:30) 8.61 (19:50) 0 0 0 0 0
01-06-2019 28 (19:00) 18.7 (00:00) 23.4 11.67 (21:40) 8.33 (21:40) 0 0 0 0 0
31-05-2019 22.1 (15:50) 14.9 (00:00) 18.5 10.83 (17:20) 7.22 (11:30) 0 0 0 0 0
30-05-2019 18.4 (16:30) 12.9 (00:00) 15.6 10 (21:40) 7.22 (21:10) 0 0 0 0 0
29-05-2019 17.5 (17:50) 12 (00:00) 14.8 15.83 (03:40) 12.78 (03:40) 3.2 3.2 0 0 0
28-05-2019 15.3 (16:00) 12.4 (00:00) 13.8 17.78 (12:20) 14.17 (12:10) 0.2 0 0.2 0 0
27-05-2019 14.7 (16:40) 12.7 (00:00) 13.7 17.22 (15:30) 12.22 (15:10) 3.4 0.8 1.2 1.2 0.2
26-05-2019 14.7 (16:10) 12.5 (00:00) 13.6 13.61 (10:50) 10.83 (14:00) 0.8 0 0.4 0.4 0

Gráficas

Temp. máximas Temp. mínimas Temp. medias Precipitaciones Rachas de viento máximas Velocidades máximas media en intervalos de 10 minutos

Datos horarios

Fecha y hora oficial Temperatura (ºC) Velocidad del viento (km/h) Dirección del viento Racha (km/h) Dirección de racha Precipitación (mm) Presión (hPa) Tendencia (hPa) Humedad (%)
2019-06-24 23:00:00 17.4 18 Oeste 49 Oeste 0 -- -- 92
2019-06-24 22:00:00 17.3 38 Oeste 57 Oeste 0 -- -- 94
2019-06-24 21:00:00 17.4 41 Oeste 55 Oeste 0 -- -- 94
2019-06-24 20:00:00 17.2 43 Oeste 68 Oeste 0 -- -- 97
2019-06-24 19:00:00 17.7 49 Oeste 64 Oeste 0 -- -- 94
2019-06-24 18:00:00 17.8 44 Oeste 57 Oeste 0 -- -- 93
2019-06-24 17:00:00 18.5 32 Oeste 45 Oeste 0 -- -- 90
2019-06-24 16:00:00 18.5 22 Oeste 32 Oeste 0 -- -- 93
2019-06-24 15:00:00 18.3 20 Oeste 34 Oeste 0 -- -- 95
2019-06-24 14:00:00 19.1 9 Oeste 17 Oeste 0 -- -- 90
2019-06-24 13:00:00 19.2 4 Norte 15 Oeste 0 -- -- 89
2019-06-24 12:00:00 19.6 11 Oeste 22 Oeste 0 -- -- 87
2019-06-24 11:00:00 18.4 10 Oeste 16 Oeste 0 -- -- 91
2019-06-24 10:00:00 18.6 4 Oeste 6 Oeste 0 -- -- 90
2019-06-24 09:00:00 18.2 0 Calma 9 Sudeste 0 -- -- 90
2019-06-24 08:00:00 17.8 5 Sudeste 17 Sudeste 0 -- -- 90
2019-06-24 07:00:00 17 10 Sudeste 17 Sudeste 0 -- -- 94
2019-06-24 06:00:00 16.9 2 Oeste 20 Oeste 0 -- -- 92
2019-06-24 05:00:00 17 14 Oeste 30 Oeste 0 -- -- 95
2019-06-24 04:00:00 17 21 Oeste 30 Oeste 0 -- -- 96
2019-06-24 03:00:00 17 20 Oeste 30 Oeste 0 -- -- 95
2019-06-24 02:00:00 16.8 19 Oeste 24 Oeste 0 -- -- 94
2019-06-24 01:00:00 16.9 10 Oeste 15 Oeste 0 -- -- 92
2019-06-24 00:00:00 17 2 Sudeste 10 Sudoeste 0 -- -- 90
2019-06-23 23:00:00 17.1 11 Sudoeste 17 Oeste 0 -- -- 91
2019-06-23 22:00:00 17.3 12 Oeste 16 Oeste 0 -- -- 90
2019-06-23 21:00:00 18.2 8 Oeste 10 Oeste 0 -- -- 85
2019-06-23 20:00:00 19.7 4 Sudeste 7 Sudeste 0 -- -- 76
2019-06-23 19:00:00 19.9 6 Oeste 17 Oeste 0 -- -- 77
2019-06-23 18:00:00 21.4 14 Oeste 29 Oeste 0 -- -- 72
2019-06-23 17:00:00 19.6 18 Oeste 39 Oeste 0 -- -- 75
2019-06-23 16:00:00 18.7 31 Oeste 40 Oeste 0 -- -- 83
2019-06-23 15:00:00 19.6 31 Oeste 41 Oeste 0 -- -- 76
2019-06-23 14:00:00 19.8 25 Oeste 31 Oeste 0 -- -- 70
2019-06-23 13:00:00 20.8 17 Oeste 20 Sudoeste 0 -- -- 69
2019-06-23 12:00:00 21 8 Oeste 12 Oeste 0 -- -- 70
2019-06-23 11:00:00 20.4 5 Oeste 30 Oeste 0 -- -- 71
2019-06-23 10:00:00 19.7 14 Oeste 47 Oeste 0 -- -- 70
2019-06-23 09:00:00 19.7 36 Oeste 60 Sudoeste 0 -- -- 69
2019-06-23 08:00:00 19.4 42 Oeste 64 Oeste 0 -- -- 73
2019-06-23 07:00:00 27.4 29 Sur 40 Sur 0 -- -- 37
2019-06-23 06:00:00 21 8 Sudeste 20 Sudeste 0 -- -- 71
2019-06-23 05:00:00 20.6 10 Sudeste 21 Sudeste 0 -- -- 78
2019-06-23 04:00:00 20.8 12 Sudeste 19 Sudeste 0 -- -- 77
2019-06-23 03:00:00 21.5 10 Sudeste 23 Sudeste 0 -- -- 74
2019-06-23 02:00:00 20.6 15 Sudeste 24 Sudeste 0 -- -- 78
2019-06-23 01:00:00 20.3 14 Sudeste 30 Este 0 -- -- 79
2019-06-23 00:00:00 21.5 20 Este 31 Sudeste -- -- -- 74
2019-06-22 23:00:00 22 20 Sudeste 32 Sudeste 0 -- -- 71
2019-06-22 22:00:00 21.8 21 Sudeste 32 Sudeste 0 -- -- 72
2019-06-22 21:00:00 21.4 21 Sudeste 31 Este 0 -- -- 73
2019-06-22 20:00:00 21.7 21 Sudeste 32 Sudeste 0 -- -- 72
2019-06-22 19:00:00 21.3 21 Sudeste 35 Este 0 -- -- 74
2019-06-22 18:00:00 21.3 23 Este 37 Este 0 -- -- 74
2019-06-22 17:00:00 20.8 23 Sudeste 39 Este 0 -- -- 77
2019-06-22 16:00:00 20 26 Este 39 Este 0 -- -- 79
2019-06-22 15:00:00 19.4 25 Sudeste 38 Este 0 -- -- 80
2019-06-22 14:00:00 19.5 29 Este 39 Este 0 -- -- 75
2019-06-22 13:00:00 19 28 Este 37 Este 0 -- -- 78
2019-06-22 12:00:00 18.7 26 Este 38 Este 0 -- -- 77
2019-06-22 11:00:00 17.7 30 Este 40 Este 0 -- -- 78
2019-06-22 10:00:00 17.1 28 Este 40 Este 0 -- -- 78
2019-06-22 09:00:00 16.6 23 Este 39 Este 0 -- -- 76
2019-06-22 08:00:00 15.9 21 Este 37 Sudeste 0 -- -- 77
2019-06-22 07:00:00 14.2 14 Sudeste 22 Este 0 -- -- 78
2019-06-22 06:00:00 13.4 10 Sudeste 16 Sudeste 0 -- -- 83
2019-06-22 05:00:00 12.7 8 Sudeste 13 Sudeste 0 -- -- 85
2019-06-22 04:00:00 12.8 6 Sudeste 10 Este 0 -- -- 83
2019-06-22 03:00:00 13.7 6 Sudeste 13 Sudeste 0 -- -- 86
2019-06-22 02:00:00 13.8 7 Sudeste 12 Sudeste 0 -- -- 90
2019-06-22 01:00:00 13.8 6 Sudeste 12 Sudeste 0 -- -- 92
2019-06-22 00:00:00 13.4 3 Sudeste 5 Este 0 -- -- 92
2019-06-21 23:00:00 13.8 0 Calma 4 Este 0 -- -- 89
2019-06-21 22:00:00 15.4 0 Calma 6 Noroeste 0 -- -- 81
2019-06-21 21:00:00 17.9 2 Norte 8 Noroeste 0 -- -- 73
2019-06-21 20:00:00 18.2 3 Norte 14 Noroeste 0 -- -- 69
2019-06-21 19:00:00 18.6 9 Noroeste 16 Noroeste 0 -- -- 70
2019-06-21 18:00:00 18 13 Noroeste 18 Noroeste 0 -- -- 73
2019-06-21 17:00:00 18.4 16 Noroeste 20 Noroeste 0 -- -- 70
2019-06-21 16:00:00 16.8 13 Noroeste 19 Noroeste 0 -- -- 73
2019-06-21 15:00:00 16.8 14 Noroeste 31 Oeste 0 -- -- 82
2019-06-21 14:00:00 17.2 23 Oeste 30 Oeste 0 -- -- 80
2019-06-21 13:00:00 16.9 18 Oeste 24 Oeste 0 -- -- 85
2019-06-21 12:00:00 16.2 12 Oeste 17 Oeste 0 -- -- 84
2019-06-21 11:00:00 16.6 2 Noroeste 8 Sudeste 0 -- -- 83
2019-06-21 10:00:00 16.5 3 Sudeste 10 Este 0 -- -- 83
2019-06-21 09:00:00 14.5 5 Este 12 Sudeste 0 -- -- 92
2019-06-21 08:00:00 13.6 2 Sur 23 Nordeste 1 -- -- 92
2019-06-21 07:00:00 14.7 17 Nordeste 22 Nordeste 2.6 -- -- 94
2019-06-21 06:00:00 15.1 14 Nordeste 21 Nordeste 0 -- -- 91
2019-06-21 05:00:00 15.1 12 Nordeste 17 Nordeste 0.2 -- -- 87
2019-06-21 04:00:00 15.3 12 Nordeste 17 Nordeste 0.2 -- -- 89
2019-06-21 03:00:00 15.7 10 Nordeste 16 Norte 0 -- -- 86
2019-06-21 02:00:00 15.8 12 Nordeste 18 Nordeste 0 -- -- 86
2019-06-21 01:00:00 16.1 4 Norte 21 Nordeste 0 -- -- 84
2019-06-21 00:00:00 16.1 17 Nordeste 23 Nordeste 0 -- -- 86
2019-06-20 23:00:00 16.4 15 Nordeste 20 Nordeste 0 -- -- 87
2019-06-20 22:00:00 16.5 14 Nordeste 19 Norte 0 -- -- 87
2019-06-20 21:00:00 17.1 9 Nordeste 17 Norte 0 -- -- 87
2019-06-20 20:00:00 17.6 11 Nordeste 16 Nordeste 0 -- -- 85
2019-06-20 19:00:00 17.6 11 Nordeste 14 Nordeste 0 -- -- 84
2019-06-20 18:00:00 18.4 11 Nordeste 17 Nordeste 0 -- -- 82
2019-06-20 17:00:00 18.3 12 Nordeste 17 Nordeste 0 -- -- 81
2019-06-20 16:00:00 18.7 10 Nordeste 14 Nordeste 0 -- -- 81
2019-06-20 15:00:00 18.8 10 Nordeste 13 Nordeste 0 -- -- 81
2019-06-20 14:00:00 18.3 9 Nordeste 13 Nordeste 0 -- -- 82
2019-06-20 13:00:00 18.2 9 Nordeste 12 Nordeste 0 -- -- 84
2019-06-20 12:00:00 18.5 6 Nordeste 10 Norte 0 -- -- 83
2019-06-20 11:00:00 17.4 5 Nordeste 9 Nordeste 0 -- -- 88
2019-06-20 10:00:00 17.1 5 Nordeste 8 Nordeste 0 -- -- 89
2019-06-20 09:00:00 16.4 2 Norte 6 Noroeste 0 -- -- 91
2019-06-20 08:00:00 15.6 2 Norte 11 Sudoeste 0 -- -- 94
2019-06-20 07:00:00 15.4 8 Oeste 18 Noroeste 0 -- -- 94
2019-06-20 06:00:00 15.6 17 Noroeste 21 Noroeste 0 -- -- 94
2019-06-20 05:00:00 15.9 16 Noroeste 32 Oeste 0 -- -- 97
2019-06-20 04:00:00 16.1 21 Oeste 29 Oeste 0 -- -- 96
2019-06-20 03:00:00 16.1 21 Oeste 31 Oeste 0 -- -- 96
2019-06-20 02:00:00 16.2 27 Oeste 31 Oeste 0 -- -- 96
2019-06-20 01:00:00 16.5 24 Oeste 33 Oeste 0 -- -- 94
2019-06-20 00:00:00 16.9 27 Oeste 32 Oeste 0 -- -- 91
2019-06-19 23:00:00 17 25 Oeste 31 Oeste 0 -- -- 89
2019-06-19 22:00:00 17.4 22 Oeste 31 Oeste 0 -- -- 88
2019-06-19 21:00:00 17.7 14 Oeste 18 Oeste 0 -- -- 87
2019-06-19 20:00:00 18.4 10 Noroeste 13 Noroeste 0 -- -- 86
2019-06-19 19:00:00 18.8 8 Nordeste 14 Este 0 -- -- 82
2019-06-19 18:00:00 19 12 Este 15 Nordeste 0 -- -- 81
2019-06-19 17:00:00 19.8 6 Nordeste 12 Norte 0 -- -- 87
2019-06-19 16:00:00 20.2 8 Nordeste -- -- -- -- -- 84
2019-06-19 15:00:00 19.3 4 Oeste -- -- -- -- -- 87
2019-06-19 14:00:00 19.6 6 Nordeste 12 Nordeste 0 -- -- 81
2019-06-19 13:00:00 21.9 10 Este 24 Este 0 -- -- 69
2019-06-19 12:00:00 19 13 Sudeste 24 Este 0 -- -- 75
2019-06-19 11:00:00 20.4 18 Este 22 Este 0 -- -- 78
2019-06-19 10:00:00 20.9 13 Sudeste 25 Sudeste 0 -- -- 70
2019-06-19 09:00:00 18.6 14 Sudeste 26 Este 0 -- -- 84
2019-06-19 08:00:00 16.5 19 Este 31 Sudeste 0 -- -- 95
2019-06-19 07:00:00 15.9 20 Sudeste 31 Este 0 -- -- 95
2019-06-19 06:00:00 15.6 18 Sudeste 26 Este 0 -- -- 93
2019-06-19 05:00:00 15.3 14 Sudeste 19 Sudeste 0 -- -- 90
2019-06-19 04:00:00 15.6 12 Sudeste 23 Este 0 -- -- 92
2019-06-19 03:00:00 15.4 14 Este 21 Este 0 -- -- 94
2019-06-19 02:00:00 15.4 3 Este 18 Oeste 0 -- -- 87
2019-06-19 01:00:00 15.4 13 Oeste 36 Oeste 0 -- -- 95
2019-06-19 00:00:00 15.5 15 Oeste 30 Oeste 0 -- -- 94
2019-06-18 23:00:00 15.8 14 Oeste 40 Oeste 0 -- -- 92
2019-06-18 22:00:00 16.1 30 Oeste 40 Oeste 0 -- -- 92
2019-06-18 21:00:00 16.8 28 Oeste 49 Oeste 0 -- -- 88
2019-06-18 20:00:00 16.6 41 Oeste 57 Oeste 0 -- -- 89
2019-06-18 19:00:00 16.3 54 Oeste 66 Oeste 0 -- -- 92
2019-06-18 18:00:00 17.1 48 Oeste 68 Oeste 0 -- -- 94
2019-06-18 17:00:00 19 49 Oeste 69 Oeste 0 -- -- 87
2019-06-18 16:00:00 25.3 12 Sudeste 31 Este 0 -- -- 61
2019-06-18 15:00:00 23.3 16 Sudeste 26 Sudeste 0 -- -- 64
2019-06-18 14:00:00 23.2 15 Sudeste 31 Sudeste 0 -- -- 73
2019-06-18 13:00:00 21.5 20 Sudeste 29 Sudeste 0 -- -- 76
2019-06-18 12:00:00 21.1 16 Sudeste 23 Sudeste 0 -- -- 79
2019-06-18 11:00:00 18.7 15 Sudeste 24 Sudeste 0 -- -- 86
2019-06-18 10:00:00 19.3 14 Este 23 Sudeste 0 -- -- 79
2019-06-18 09:00:00 19.9 11 Este 18 Este 0 -- -- 77
2019-06-18 08:00:00 19.8 8 Este 15 Este 0 -- -- 73
2019-06-18 07:00:00 16.6 8 Sudeste 17 Sur 0 -- -- 84
2019-06-18 06:00:00 15.5 11 Sudeste 21 Sudeste 0 -- -- 93
2019-06-18 05:00:00 15 8 Este 17 Sudeste 0 -- -- 94
2019-06-18 04:00:00 15.6 10 Sudoeste 23 Sudeste 0 -- -- 91
2019-06-18 03:00:00 15.8 12 Sudoeste 31 Oeste 0 -- -- 89
2019-06-18 02:00:00 16 21 Oeste 38 Oeste 0 -- -- 90
2019-06-18 01:00:00 16.2 32 Oeste 53 Oeste 0 -- -- 88
2019-06-18 00:00:00 16.1 27 Oeste 40 Oeste 0 -- -- 90
2019-06-17 23:00:00 15.8 30 Oeste 50 Oeste 0 -- -- 91
2019-06-17 22:00:00 15.8 26 Oeste 52 Oeste 0 -- -- 92
2019-06-17 21:00:00 16 40 Oeste 56 Oeste 0 -- -- 93
2019-06-17 20:00:00 16.2 38 Oeste 48 Oeste 0 -- -- 93
2019-06-17 19:00:00 16.7 38 Oeste 45 Oeste 0 -- -- 94
2019-06-17 18:00:00 18.7 17 Oeste 27 Este 0 -- -- 87
2019-06-17 17:00:00 19.2 23 Este 35 Este 0 -- -- 85
2019-06-17 16:00:00 19 27 Este 36 Sudeste 0 -- -- 83
2019-06-17 15:00:00 19.3 25 Este 36 Este 0 -- -- 84
2019-06-17 14:00:00 19.2 26 Este 34 Este 0 -- -- 83
2019-06-17 13:00:00 19.1 24 Este 31 Este 0 -- -- 84
2019-06-17 12:00:00 19.2 18 Este 31 Este 0 -- -- 83
2019-06-17 11:00:00 18.7 22 Este 29 Este 0 -- -- 81
2019-06-17 10:00:00 17.7 18 Este 21 Este 0 -- -- 86
2019-06-17 09:00:00 17.8 8 Este 11 Este 0 -- -- 82
2019-06-17 08:00:00 16.7 4 Este 6 Este 0 -- -- 89
2019-06-17 07:00:00 14.2 0 Calma 7 Noroeste 0 -- -- 96
2019-06-17 06:00:00 13.7 0 Calma 11 Sudoeste 0 -- -- 95
2019-06-17 05:00:00 14 0 Calma 11 Sur 0 -- -- 93
2019-06-17 04:00:00 15.1 10 Sudoeste 26 Oeste 0 -- -- 93
2019-06-17 03:00:00 15.4 17 Oeste 32 Oeste 0 -- -- 94
2019-06-17 02:00:00 15.3 21 Oeste 35 Oeste 0 -- -- 95
2019-06-17 01:00:00 15.4 27 Oeste 37 Oeste 0 -- -- 95
2019-06-17 00:00:00 15.5 24 Oeste 33 Oeste 0 -- -- 94
2019-06-16 23:00:00 15.8 23 Oeste 33 Oeste 0 -- -- 93
2019-06-16 22:00:00 16.4 12 Oeste 18 Oeste 0 -- -- 91
2019-06-16 21:00:00 18.1 2 Este 23 Este 0 -- -- 80
2019-06-16 20:00:00 18.5 13 Sudeste 26 Este 0 -- -- 78
2019-06-16 19:00:00 18.5 20 Sudeste 29 Este 0 -- -- 78
2019-06-16 18:00:00 18.6 21 Este 33 Este 0 -- -- 80
2019-06-16 17:00:00 18.7 23 Este 32 Este 0 -- -- 80
2019-06-16 16:00:00 18.6 26 Este 32 Este 0 -- -- 82
2019-06-16 15:00:00 18.3 23 Este 33 Este 0 -- -- 80
2019-06-16 14:00:00 18.2 25 Este 37 Este 0 -- -- 80
2019-06-16 13:00:00 17.7 31 Este 37 Este 0 -- -- 80
2019-06-16 12:00:00 17.7 26 Este 37 Este 0 -- -- 81
2019-06-16 11:00:00 17.2 29 Este 37 Este 0 -- -- 81
2019-06-16 10:00:00 16.9 24 Este 32 Este 0 -- -- 80
2019-06-16 09:00:00 16.2 20 Este 30 Sudeste 0 -- -- 79
2019-06-16 08:00:00 15.8 18 Este 26 Este 0 -- -- 81
2019-06-16 07:00:00 13.5 13 Sudeste 21 Este 0 -- -- 87
2019-06-16 06:00:00 13.3 11 Sudeste 19 Este 0 -- -- 86
2019-06-16 05:00:00 12.6 6 Sudeste 8 Sudeste 0 -- -- 87
2019-06-16 04:00:00 13.3 4 Sudeste 9 Sudeste 0 -- -- 85
2019-06-16 03:00:00 13.2 5 Sudeste 8 Sudeste 0 -- -- 86
2019-06-16 02:00:00 13 4 Sudeste 6 Sudeste 0 -- -- 89
2019-06-16 01:00:00 13.7 0 Calma 3 Este 0 -- -- 85
2019-06-16 00:00:00 13.4 0 Calma 5 Este 0 -- -- 85
2019-06-15 23:00:00 13.4 2 Este 5 Nordeste 0 -- -- 85
2019-06-15 22:00:00 14 4 Este 10 Este 0 -- -- 82
2019-06-15 21:00:00 15.6 6 Este 9 Este 0 -- -- 75
2019-06-15 20:00:00 17.7 6 Nordeste 12 Norte 0 -- -- 67
2019-06-15 19:00:00 18.1 8 Nordeste 11 Nordeste 0 -- -- 67
2019-06-15 18:00:00 18.3 8 Nordeste 14 Este 0 -- -- 67
2019-06-15 17:00:00 18.5 10 Este 15 Este 0 -- -- 66
2019-06-15 16:00:00 18.4 10 Este 14 Este 0 -- -- 67
2019-06-15 15:00:00 18.1 6 Nordeste 9 Noroeste 0 -- -- 64
2019-06-15 14:00:00 18.7 5 Noroeste 13 Noroeste 0 -- -- 67
2019-06-15 13:00:00 17.8 10 Noroeste 14 Oeste 0 -- -- 71
2019-06-15 12:00:00 17.3 8 Oeste 17 Oeste 0 -- -- 71
2019-06-15 11:00:00 16.5 13 Oeste 25 Oeste 0 -- -- 72
2019-06-15 10:00:00 15.9 17 Oeste 23 Oeste 0 -- -- 72
2019-06-15 09:00:00 16 11 Oeste 21 Oeste 0 -- -- 72
2019-06-15 08:00:00 15.3 6 Oeste 20 Oeste 0 -- -- 73
2019-06-15 07:00:00 13.3 7 Oeste 16 Oeste 0 -- -- 86
2019-06-15 06:00:00 13.1 12 Sudoeste 26 Sudoeste 0 -- -- 87
2019-06-15 05:00:00 13.3 12 Oeste 23 Sudoeste 0 -- -- 91
2019-06-15 04:00:00 13.4 15 Oeste 27 Sudoeste 0 -- -- 92
2019-06-15 03:00:00 13.2 12 Oeste 18 Oeste 0 -- -- 89
2019-06-15 02:00:00 13.7 10 Oeste 18 Oeste 0 -- -- 89
2019-06-15 01:00:00 14.2 17 Oeste 27 Oeste 0 -- -- 86
2019-06-15 00:00:00 14.4 22 Oeste 30 Oeste 0 -- -- 84
2019-06-14 23:00:00 14.5 18 Oeste 23 Oeste 0 -- -- 83
2019-06-14 22:00:00 14.5 13 Noroeste 19 Noroeste 0 -- -- 84
2019-06-14 21:00:00 14.6 15 Oeste 18 Oeste 0 -- -- 85
2019-06-14 20:00:00 14.5 6 Oeste 13 Noroeste 0 -- -- 87
2019-06-14 19:00:00 14.2 8 Noroeste 13 Noroeste 0 -- -- 89
2019-06-14 18:00:00 13.8 7 Norte 16 Norte 0 -- -- 93
2019-06-14 17:00:00 14.3 6 Norte 16 Nordeste 0.2 -- -- 93
2019-06-14 16:00:00 15 6 Noroeste 11 Norte 0 -- -- 88
2019-06-14 15:00:00 15.4 7 Nordeste 15 Nordeste 0 -- -- 82
2019-06-14 14:00:00 15.2 10 Nordeste 16 Nordeste 0 -- -- 84
2019-06-14 13:00:00 15.1 11 Nordeste 14 Nordeste 0 -- -- 84
2019-06-14 12:00:00 15.2 8 Este 11 Este 0 -- -- 82
2019-06-14 11:00:00 15.4 7 Este 12 Este 0 -- -- 83
2019-06-14 10:00:00 14.8 8 Este 12 Este 0 -- -- 82
2019-06-14 09:00:00 14.7 6 Este 13 Sudeste 0 -- -- 85
2019-06-14 08:00:00 12.9 5 Sudeste 11 Sudeste 0 -- -- 91
2019-06-14 07:00:00 11.9 7 Este 10 Este 0 -- -- 93
2019-06-14 06:00:00 11.7 5 Sudeste 8 Este 0 -- -- 92
2019-06-14 05:00:00 11.9 5 Sudeste 7 Sudeste 0 -- -- 92
2019-06-14 04:00:00 12.2 4 Sudeste 5 Sudeste 0 -- -- 92
2019-06-14 03:00:00 12.5 0 Calma 5 Sur 0 -- -- 89
2019-06-14 02:00:00 13.5 2 Oeste 10 Oeste 0 -- -- 86
2019-06-14 01:00:00 13.9 6 Noroeste 13 Noroeste 0 -- -- 86
2019-06-14 00:00:00 13.9 9 Noroeste 17 Noroeste 0.6 -- -- 85
2019-06-13 23:00:00 13.9 14 Noroeste 23 Oeste 0.6 -- -- 85
2019-06-13 22:00:00 14.3 18 Noroeste 26 Noroeste 0 -- -- 84
2019-06-13 21:00:00 14.2 22 Oeste 29 Oeste 0 -- -- 86
2019-06-13 20:00:00 14.7 20 Noroeste 29 Noroeste 0 -- -- 82
2019-06-13 19:00:00 15.1 13 Noroeste 18 Noroeste 0 -- -- 82
2019-06-13 18:00:00 15.7 5 Norte 16 Nordeste 0 -- -- 79
2019-06-13 17:00:00 15.8 11 Nordeste 21 Nordeste 0 -- -- 79
2019-06-13 16:00:00 15.8 16 Nordeste 22 Nordeste 0 -- -- 80
2019-06-13 15:00:00 15.4 17 Nordeste 22 Nordeste 0 -- -- 80
2019-06-13 14:00:00 16 16 Nordeste 21 Nordeste 0 -- -- 77
2019-06-13 13:00:00 16.1 12 Nordeste 16 Nordeste 0 -- -- 75
2019-06-13 12:00:00 16.4 10 Nordeste 14 Nordeste 0 -- -- 76
2019-06-13 11:00:00 16.3 9 Nordeste 12 Nordeste 0 -- -- 77
2019-06-13 10:00:00 16.3 6 Nordeste 10 Nordeste 0 -- -- 76
2019-06-13 09:00:00 15.4 3 Noroeste 6 Este 0 -- -- 77
2019-06-13 08:00:00 14 4 Este 8 Este 0 -- -- 83
2019-06-13 07:00:00 11.5 4 Sudeste 5 Sudeste 0 -- -- 91
2019-06-13 06:00:00 11.6 2 Sudoeste 4 Sudoeste 0 -- -- 90
2019-06-13 05:00:00 11.8 4 Oeste 7 Oeste 0 -- -- 89
2019-06-13 04:00:00 11.8 5 Oeste 10 Sudoeste 0 -- -- 89
2019-06-13 03:00:00 12 7 Oeste 12 Sudoeste 0 -- -- 87
2019-06-13 02:00:00 12.4 6 Sudoeste 13 Sudoeste -- -- -- 85
2019-06-13 01:00:00 12.6 9 Oeste 15 Sudoeste 0 -- -- 84
2019-06-13 00:00:00 12.7 10 Oeste 19 Oeste 0 -- -- 85
2019-06-12 23:00:00 13.5 11 Oeste 30 Oeste 0 -- -- 84
2019-06-12 22:00:00 13.9 26 Oeste 32 Oeste 0 -- -- 81
2019-06-12 21:00:00 14.3 25 Oeste 35 Oeste 0 -- -- 79
2019-06-12 20:00:00 15.3 28 Oeste 40 Oeste 0 -- -- 75
2019-06-12 19:00:00 15.2 35 Oeste 45 Oeste 0 -- -- 74
2019-06-12 18:00:00 15.2 41 Oeste 52 Oeste 0 -- -- 75
2019-06-12 17:00:00 15.2 47 Oeste 60 Oeste 0 -- -- 74
2019-06-12 16:00:00 14.9 45 Oeste 66 Oeste 0 -- -- 75
2019-06-12 15:00:00 14.9 54 Oeste 65 Oeste 0 -- -- 72
2019-06-12 14:00:00 15.2 47 Oeste 59 Oeste 0 -- -- 73
2019-06-12 13:00:00 14.7 41 Oeste 58 Oeste 0 -- -- 74
2019-06-12 12:00:00 14.2 30 Oeste 60 Oeste 0 -- -- 67
2019-06-12 11:00:00 13.8 46 Oeste 70 Oeste 0 -- -- 67
2019-06-12 10:00:00 13.5 35 Oeste 68 Oeste 0 -- -- 67
2019-06-12 09:00:00 13.1 31 Oeste 67 Oeste 0 -- -- 69
2019-06-12 08:00:00 13.2 32 Oeste 62 Oeste 0 -- -- 68
2019-06-12 07:00:00 12.9 31 Oeste 50 Oeste 0 -- -- 69
2019-06-12 06:00:00 12.7 31 Oeste 60 Sudoeste 0 -- -- 74
2019-06-12 05:00:00 12 30 Oeste 61 Oeste 0.6 -- -- 82
2019-06-12 04:00:00 11.6 24 Oeste 59 Oeste 0.6 -- -- 83
2019-06-12 03:00:00 13.1 27 Oeste 69 Oeste 0 -- -- 73
2019-06-12 02:00:00 13.1 35 Oeste 63 Oeste 0 -- -- 77
2019-06-12 01:00:00 13.2 30 Oeste 60 Oeste 0 -- -- 79
2019-06-12 00:00:00 13.4 31 Oeste 72 Oeste 0 -- -- 79
2019-06-11 23:00:00 13.8 48 Oeste 80 Oeste 0 -- -- 80
2019-06-11 22:00:00 13.7 50 Oeste 73 Oeste 0 -- -- 81
2019-06-11 21:00:00 13.8 51 Oeste 81 Oeste 0 -- -- 78
2019-06-11 20:00:00 13.8 62 Oeste 79 Oeste 0 -- -- 83
2019-06-11 19:00:00 14.8 59 Oeste 76 Oeste 0 -- -- 77
2019-06-11 18:00:00 14.4 57 Oeste 75 Oeste 0.2 -- -- 77
2019-06-11 17:00:00 13.8 59 Oeste 73 Oeste 0.2 -- -- 85
2019-06-11 16:00:00 14.4 57 Oeste 72 Oeste 0 -- -- 73
2019-06-11 15:00:00 14.3 49 Oeste 66 Oeste 0.2 -- -- 77
2019-06-11 14:00:00 14 51 Oeste 64 Oeste 0 -- -- 73
2019-06-11 13:00:00 12.8 36 Oeste 63 Oeste 0 -- -- 82
2019-06-11 12:00:00 12.7 40 Oeste 62 Oeste 1 -- -- 84
2019-06-11 11:00:00 12.5 33 Oeste 61 Oeste 0.2 -- -- 88
2019-06-11 10:00:00 12.4 38 Oeste 59 Oeste 0 -- -- 86
2019-06-11 09:00:00 10.9 28 Oeste 67 Oeste 1.2 -- -- 90
2019-06-11 08:00:00 12.7 35 Oeste 43 Oeste 0 -- -- 82
2019-06-11 07:00:00 11.5 22 Oeste 55 Oeste 3 -- -- 94
2019-06-11 06:00:00 10.6 22 Oeste 48 Oeste 6.8 -- -- 96
2019-06-11 05:00:00 11.1 21 Oeste 42 Oeste 3 -- -- 94
2019-06-11 04:00:00 11.1 23 Oeste 38 Oeste 4.8 -- -- 92
2019-06-11 03:00:00 11.4 17 Oeste 39 Oeste 1.4 -- -- 92
2019-06-11 02:00:00 11.4 17 Oeste 30 Oeste 2.8 -- -- 91
2019-06-11 01:00:00 11.5 12 Sudoeste 30 Oeste 0.2 -- -- 86
2019-06-11 00:00:00 11.8 10 Sudoeste 21 Oeste 0.8 -- -- 85
2019-06-10 23:00:00 12.3 13 Oeste 21 Sudoeste 1 -- -- 87
2019-06-10 22:00:00 13.2 5 Sudoeste 23 Oeste 0 -- -- 83
2019-06-10 21:00:00 14 15 Oeste 23 Oeste 0 -- -- 77
2019-06-10 20:00:00 14.2 19 Oeste 26 Oeste 0 -- -- 77
2019-06-10 19:00:00 14.3 16 Oeste 21 Oeste 0 -- -- 75
2019-06-10 18:00:00 14.5 13 Noroeste 23 Noroeste 0 -- -- 73
2019-06-10 17:00:00 15 19 Noroeste 28 Oeste 0 -- -- 72
2019-06-10 16:00:00 15.2 21 Noroeste 28 Oeste 0 -- -- 72
2019-06-10 15:00:00 15.7 21 Oeste 26 Oeste 0 -- -- 71
2019-06-10 14:00:00 15.2 21 Oeste 30 Oeste 0 -- -- 72
2019-06-10 13:00:00 14.6 23 Oeste 29 Oeste 0 -- -- 75
2019-06-10 12:00:00 14.7 18 Oeste 23 Oeste 0 -- -- 73
2019-06-10 11:00:00 14.6 12 Oeste 19 Oeste 0 -- -- 74
2019-06-10 10:00:00 14.8 12 Oeste 17 Noroeste 0 -- -- 72
2019-06-10 09:00:00 13.7 10 Noroeste 17 Noroeste 0 -- -- 74
2019-06-10 08:00:00 13.4 13 Noroeste 16 Oeste 0 -- -- 74
2019-06-10 07:00:00 12.7 10 Noroeste 15 Noroeste 0 -- -- 79
2019-06-10 06:00:00 12.5 6 Noroeste 20 Noroeste 0 -- -- 78
2019-06-10 05:00:00 12.8 14 Noroeste 25 Noroeste 0 -- -- 79
2019-06-10 04:00:00 13.1 19 Noroeste 25 Noroeste 0 -- -- 80
2019-06-10 03:00:00 13.1 18 Noroeste 27 Noroeste 0 -- -- 81
2019-06-10 02:00:00 13.3 22 Noroeste 32 Noroeste 0 -- -- 81
2019-06-10 01:00:00 13.5 26 Noroeste 33 Noroeste 0 -- -- 83
2019-06-10 00:00:00 13.6 18 Noroeste 30 Noroeste 0 -- -- 83
2019-06-09 23:00:00 13.7 25 Noroeste 30 Noroeste 0 -- -- 87
2019-06-09 22:00:00 13.6 17 Noroeste 24 Noroeste 0 -- -- 88
2019-06-09 21:00:00 13.7 18 Noroeste 33 Noroeste 0 -- -- 87
2019-06-09 20:00:00 13.7 26 Noroeste 36 Noroeste 0 -- -- 91
2019-06-09 19:00:00 13.7 30 Noroeste 39 Noroeste 0 -- -- 93
2019-06-09 18:00:00 14.4 15 Noroeste 25 Norte 0 -- -- 91
2019-06-09 17:00:00 15 15 Noroeste 26 Noroeste 0 -- -- 91
2019-06-09 16:00:00 15 19 Noroeste 41 Oeste 0 -- -- 91
2019-06-09 15:00:00 15 37 Oeste 51 Oeste 0 -- -- 91
2019-06-09 14:00:00 15.4 33 Oeste 42 Oeste 0 -- -- 88
2019-06-09 13:00:00 14.8 32 Oeste 41 Oeste 0 -- -- 92
2019-06-09 12:00:00 15.2 25 Oeste 38 Oeste 0 -- -- 90
2019-06-09 11:00:00 16.1 16 Oeste 21 Oeste 0 -- -- 86
2019-06-09 10:00:00 17.3 5 Este 18 Este 0 -- -- 82
2019-06-09 09:00:00 15.6 10 Este 22 Nordeste 0 -- -- 87
2019-06-09 08:00:00 14.9 18 Nordeste 31 Nordeste 0 -- -- 91
2019-06-09 07:00:00 14.9 22 Nordeste 28 Nordeste 0 -- -- 90
2019-06-09 06:00:00 14.4 3 Sur 13 Sur 0 -- -- 92
2019-06-09 05:00:00 14.5 7 Noroeste 19 Norte 0 -- -- 90
2019-06-09 04:00:00 14.4 11 Noroeste 21 Oeste 0 -- -- 84
2019-06-09 03:00:00 14.5 10 Noroeste 17 Noroeste 0 -- -- 83
2019-06-09 02:00:00 14.7 8 Noroeste 16 Noroeste 0 -- -- 81
2019-06-09 01:00:00 14.6 8 Noroeste 15 Noroeste 0 -- -- 81
2019-06-09 00:00:00 14.7 8 Noroeste 13 Noroeste 0 -- -- 80
2019-06-08 23:00:00 14.8 2 Norte 14 Nordeste 0 -- -- 77
2019-06-08 22:00:00 14.7 10 Nordeste 14 Nordeste 0 -- -- 77
2019-06-08 21:00:00 14.8 9 Nordeste 18 Nordeste 0 -- -- 76
2019-06-08 20:00:00 15.3 12 Nordeste 22 Nordeste 0 -- -- 76
2019-06-08 19:00:00 15.6 17 Nordeste 23 Nordeste 0 -- -- 75
2019-06-08 18:00:00 15.8 19 Nordeste 31 Este 0 -- -- 74
2019-06-08 17:00:00 16.3 25 Nordeste 33 Este 0 -- -- 72
2019-06-08 16:00:00 16.6 29 Este 35 Este 0 -- -- 67
2019-06-08 15:00:00 16.9 28 Este 35 Este 0 -- -- 71
2019-06-08 14:00:00 16.9 27 Este 34 Este 0 -- -- 70
2019-06-08 13:00:00 16.9 26 Este 32 Este 0 -- -- 69
2019-06-08 12:00:00 16.9 21 Este 27 Este 0 -- -- 69
2019-06-08 11:00:00 16.6 15 Este 21 Este 0 -- -- 71
2019-06-08 10:00:00 16.1 10 Este 14 Este 0 -- -- 69
2019-06-08 09:00:00 15.9 7 Este 12 Este 0 -- -- 66
2019-06-08 08:00:00 15.1 3 Este 8 Sudeste 0 -- -- 71
2019-06-08 07:00:00 11.5 2 Sur 9 Sudoeste 0 -- -- 83
2019-06-08 06:00:00 11.5 7 Sudoeste 10 Sudoeste 0 -- -- 83
2019-06-08 05:00:00 11.9 7 Sudoeste 12 Oeste 0 -- -- 82
2019-06-08 04:00:00 13 8 Oeste 17 Sudoeste 0 -- -- 78
2019-06-08 03:00:00 13.1 5 Sudoeste 15 Oeste 0 -- -- 76
2019-06-08 02:00:00 13.3 6 Sudoeste 21 Oeste 0 -- -- 76
2019-06-08 01:00:00 14 19 Oeste 37 Oeste 0 -- -- 74
2019-06-08 00:00:00 14.4 30 Oeste 43 Oeste 0 -- -- 72
2019-06-07 23:00:00 14.3 27 Oeste 45 Oeste 0 -- -- 71
2019-06-07 22:00:00 14.5 36 Oeste 45 Oeste 0 -- -- 73
2019-06-07 21:00:00 14.6 37 Oeste 48 Oeste 0 -- -- 73
2019-06-07 20:00:00 14.9 41 Oeste 54 Oeste 0 -- -- 70
2019-06-07 19:00:00 15.1 48 Oeste 61 Oeste 0 -- -- 67
2019-06-07 18:00:00 15.5 46 Oeste 67 Oeste 0 -- -- 69
2019-06-07 17:00:00 15.3 55 Oeste 72 Oeste 0 -- -- 68
2019-06-07 16:00:00 16 62 Oeste 79 Oeste 0 -- -- 60
2019-06-07 15:00:00 15.8 64 Oeste 83 Oeste 0 -- -- 61
2019-06-07 14:00:00 15.9 66 Oeste 87 Oeste 0 -- -- 62
2019-06-07 13:00:00 16.1 68 Oeste 85 Oeste 0 -- -- 57
2019-06-07 12:00:00 16.1 65 Oeste 85 Oeste 0 -- -- 53
2019-06-07 11:00:00 16.3 42 Oeste 62 Oeste 0 -- -- 53
2019-06-07 10:00:00 16.2 35 Oeste 48 Oeste 0 -- -- 55
2019-06-07 09:00:00 16.3 21 Sudoeste 46 Sudoeste 0 -- -- 49
2019-06-07 08:00:00 15.5 22 Sudoeste 55 Sudoeste 0 -- -- 49
2019-06-07 07:00:00 14.9 25 Sudoeste 53 Sur 0 -- -- 48
2019-06-07 06:00:00 15 25 Sudoeste 54 Sudoeste 0 -- -- 49
2019-06-07 05:00:00 15 23 Sudoeste 48 Sudoeste 0 -- -- 53
2019-06-07 04:00:00 15.8 25 Sudoeste 45 Sur 0 -- -- 48
2019-06-07 03:00:00 16.1 17 Sudoeste 50 Sudoeste 0 -- -- 46
2019-06-07 02:00:00 16.7 24 Sur 60 Oeste 0 -- -- 51
2019-06-07 01:00:00 20.1 37 Oeste 59 Oeste 0 -- -- 49
2019-06-07 00:00:00 21 18 Sudoeste 42 Sudoeste 0 -- -- 46
2019-06-06 23:00:00 21.9 21 Sudoeste 54 Sudoeste 0 -- -- 43
2019-06-06 22:00:00 24.2 14 Sur 26 Sur 0 -- -- 28
2019-06-06 21:00:00 20.4 6 Este 17 Sudeste 0 -- -- 59
2019-06-06 20:00:00 20.1 10 Sudeste 23 Sudeste 0 -- -- 62
2019-06-06 19:00:00 19.1 17 Este 26 Este 0 -- -- 76
2019-06-06 18:00:00 18.8 15 Este 30 Sudeste 0 -- -- 77
2019-06-06 17:00:00 18.6 23 Este 40 Este 0 -- -- 78
2019-06-06 16:00:00 18.8 30 Este 40 Este 0 -- -- 74
2019-06-06 15:00:00 17.7 32 Este 44 Este 0 -- -- 71
2019-06-06 14:00:00 17.5 31 Este 39 Este 0 -- -- 70
2019-06-06 13:00:00 17.1 30 Este 39 Este 0 -- -- 70
2019-06-06 12:00:00 16.8 31 Este 40 Este 0 -- -- 70
2019-06-06 11:00:00 16.1 32 Este 40 Este 0 -- -- 67
2019-06-06 10:00:00 15.6 22 Este 32 Sudeste 0 -- -- 64
2019-06-06 09:00:00 15.5 12 Este 19 Este 0 -- -- 68
2019-06-06 08:00:00 13.9 5 Sudeste 8 Sudeste 0 -- -- 61
2019-06-06 07:00:00 11.9 3 Sudeste 12 Sur 0 -- -- 68
2019-06-06 06:00:00 12.3 5 Sudoeste 18 Oeste 0 -- -- 67
2019-06-06 05:00:00 12.8 12 Sudoeste 20 Sudoeste 0 -- -- 65
2019-06-06 04:00:00 12.4 10 Sudoeste 21 Oeste 0 -- -- 66
2019-06-06 03:00:00 12.2 2 Nordeste 21 Sudoeste 0 -- -- 78
2019-06-06 02:00:00 12.5 15 Sudoeste 25 Sudoeste 0 -- -- 78
2019-06-06 01:00:00 13.1 13 Oeste 23 Sudoeste 0 -- -- 74
2019-06-06 00:00:00 13.1 14 Oeste 23 Sudoeste 0 -- -- 75
2019-06-05 23:00:00 13.2 14 Oeste 32 Oeste 0 -- -- 76
2019-06-05 22:00:00 13.9 24 Oeste 47 Oeste 0 -- -- 76
2019-06-05 21:00:00 13.7 34 Oeste 53 Oeste 0 -- -- 76
2019-06-05 20:00:00 14.2 42 Oeste 59 Oeste 0 -- -- 71
2019-06-05 19:00:00 14.5 44 Oeste 63 Oeste 0 -- -- 68
2019-06-05 18:00:00 15.3 50 Oeste 65 Oeste 0 -- -- 75
2019-06-05 17:00:00 15.1 50 Oeste 63 Oeste 0 -- -- 75
2019-06-05 16:00:00 14.7 51 Oeste 76 Oeste 0 -- -- 71
2019-06-05 15:00:00 14.5 62 Oeste 82 Oeste 0.2 -- -- 77
2019-06-05 14:00:00 13.9 61 Oeste 83 Oeste 0.2 -- -- 81
2019-06-05 13:00:00 12.6 70 Oeste 90 Oeste 4.8 -- -- 96
2019-06-05 12:00:00 11.7 13 Oeste 48 Oeste 14.4 -- -- 98
2019-06-05 11:00:00 12.7 25 Oeste 40 Oeste 0.4 -- -- 92
2019-06-05 10:00:00 12.1 23 Oeste 36 Sudoeste 1 -- -- 93
2019-06-05 09:00:00 12.1 22 Oeste 35 Sudoeste 0.4 -- -- 92
2019-06-05 08:00:00 12.1 26 Oeste 45 Oeste 0.4 -- -- 95
2019-06-05 07:00:00 12 23 Oeste 41 Sudoeste 0.8 -- -- 94
2019-06-05 06:00:00 12.4 34 Oeste 50 Oeste 0.2 -- -- 94
2019-06-05 05:00:00 12.6 32 Oeste 48 Oeste 0 -- -- 94
2019-06-05 04:00:00 12.4 21 Oeste 39 Oeste 0.8 -- -- 95
2019-06-05 03:00:00 13 19 Oeste 42 Oeste 0.2 -- -- 92
2019-06-05 02:00:00 13 9 Sudoeste 21 Sudoeste 1.2 -- -- 92
2019-06-05 01:00:00 13.1 14 Sudoeste 26 Oeste 2.6 -- -- 93
2019-06-05 00:00:00 13.7 17 Sudoeste 31 Sudoeste 0.6 -- -- 91
2019-06-04 23:00:00 13.9 12 Sudoeste 35 Oeste 0.4 -- -- 92
2019-06-04 22:00:00 14.4 21 Oeste 35 Oeste 0 -- -- 89
2019-06-04 21:00:00 15.6 30 Oeste 42 Oeste 0 -- -- 79
2019-06-04 20:00:00 15.7 39 Oeste 57 Oeste 0 -- -- 76
2019-06-04 19:00:00 15.9 48 Oeste 67 Oeste 0 -- -- 80
2019-06-04 18:00:00 16.1 58 Oeste 70 Oeste 0 -- -- 76
2019-06-04 17:00:00 15.8 61 Oeste 71 Oeste 0 -- -- 89
2019-06-04 16:00:00 20.1 13 Oeste 22 Oeste 0 -- -- 73
2019-06-04 15:00:00 19.6 13 Noroeste 27 Noroeste 0 -- -- 77
2019-06-04 14:00:00 18.6 21 Oeste 32 Oeste 0 -- -- 84
2019-06-04 13:00:00 18.4 26 Oeste 44 Oeste 0 -- -- 88
2019-06-04 12:00:00 17.7 37 Oeste 44 Oeste 0 -- -- 89
2019-06-04 11:00:00 17.5 27 Oeste 36 Oeste 0 -- -- 89
2019-06-04 10:00:00 17.4 27 Oeste 37 Oeste 0 -- -- 89
2019-06-04 09:00:00 17 22 Oeste 36 Oeste 0 -- -- 89
2019-06-04 08:00:00 17.1 15 Oeste 24 Oeste 0 -- -- 87
2019-06-04 07:00:00 16.2 9 Sudoeste 27 Oeste 0 -- -- 92
2019-06-04 06:00:00 15.7 7 Oeste 15 Sudeste 0 -- -- 90
2019-06-04 05:00:00 16.1 10 Sudeste 14 Sudeste 0 -- -- 89
2019-06-04 04:00:00 16.7 10 Sudeste 21 Este 0 -- -- 87
2019-06-04 03:00:00 16.8 6 Sudeste 12 Sudeste 0 -- -- 91
2019-06-04 02:00:00 17 5 Sudeste 9 Sudeste 0 -- -- 93
2019-06-04 01:00:00 17.2 0 Calma 10 Este 0 -- -- 94
2019-06-04 00:00:00 17.2 0 Calma 7 Este 0 -- -- 94
2019-06-03 23:00:00 17.4 3 Nordeste 13 Nordeste 0 -- -- 93
2019-06-03 22:00:00 17.2 8 Nordeste 14 Nordeste 0 -- -- 90
2019-06-03 21:00:00 17.5 10 Nordeste 15 Nordeste 0 -- -- 90
2019-06-03 20:00:00 18.6 10 Nordeste 18 Nordeste 0 -- -- 87
2019-06-03 19:00:00 18.6 15 Este 19 Este 0 -- -- 84
2019-06-03 18:00:00 18.9 15 Este 21 Este 0 -- -- 82
2019-06-03 17:00:00 19.1 17 Este 22 Este 0 -- -- 84
2019-06-03 16:00:00 19.5 17 Este 22 Este 0 -- -- 79
2019-06-03 15:00:00 20 16 Este 21 Este 0 -- -- 75
2019-06-03 14:00:00 20 13 Este 18 Este 0 -- -- 77
2019-06-03 13:00:00 20 9 Este 18 Este 0 -- -- 78
2019-06-03 12:00:00 19.5 10 Este 18 Este 0 -- -- 79
2019-06-03 11:00:00 19.5 4 Noroeste 9 Oeste 0 -- -- 77
2019-06-03 10:00:00 18.1 6 Oeste 19 Oeste 0 -- -- 83
2019-06-03 09:00:00 16.7 12 Oeste 28 Oeste 0 -- -- 91
2019-06-03 08:00:00 16.4 7 Sur 19 Sudeste 0 -- -- 79
2019-06-03 07:00:00 15.2 6 Sudeste 11 Este 0 -- -- 83
2019-06-03 06:00:00 15 0 Calma 6 Sudoeste 0 -- -- 88
2019-06-03 05:00:00 15.4 4 Sudoeste 23 Oeste 0 -- -- 92
2019-06-03 04:00:00 15.9 16 Oeste 23 Oeste 0 -- -- 93
2019-06-03 03:00:00 15.5 14 Oeste 18 Oeste 0 -- -- 87
2019-06-03 02:00:00 16 5 Sudoeste 31 Oeste 0 -- -- 83
2019-06-03 01:00:00 16.4 20 Oeste 30 Oeste 0 -- -- 87
2019-06-03 00:00:00 16.4 14 Oeste 24 Oeste 0 -- -- 80
2019-06-02 23:00:00 16.7 14 Sudoeste 28 Oeste 0 -- -- 67
2019-06-02 22:00:00 16.8 22 Oeste 35 Oeste 0 -- -- 92
2019-06-02 21:00:00 17.2 22 Oeste 34 Oeste 0 -- -- 92
2019-06-02 20:00:00 18 27 Oeste 39 Oeste 0 -- -- 87
2019-06-02 19:00:00 18.7 25 Oeste 36 Oeste 0 -- -- 88
2019-06-02 18:00:00 19.6 22 Oeste 28 Oeste 0 -- -- 76
2019-06-02 17:00:00 19 23 Oeste 33 Oeste 0 -- -- 83
2019-06-02 16:00:00 19.2 27 Oeste 34 Oeste 0 -- -- 83
2019-06-02 15:00:00 20.7 23 Oeste 26 Oeste 0 -- -- 73
2019-06-02 14:00:00 23 3 Norte 12 Este 0 -- -- 63
2019-06-02 13:00:00 23.8 5 Este 11 Este 0 -- -- 55
2019-06-02 12:00:00 24.5 6 Este 12 Sudeste 0 -- -- 56
2019-06-02 11:00:00 23.6 5 Sudeste 14 Este 0 -- -- 56
2019-06-02 10:00:00 24.1 4 Este 9 Sur 0 -- -- 51
2019-06-02 09:00:00 22.4 6 Sudeste 9 Sudeste 0 -- -- 53
2019-06-02 08:00:00 21.6 0 Calma 10 Oeste 0 -- -- 53
2019-06-02 07:00:00 18.5 6 Sudoeste 17 Oeste 0 -- -- 54
2019-06-02 06:00:00 18 0 Calma 7 Sudeste 0 -- -- 57
2019-06-02 05:00:00 15.9 2 Sudeste 7 Noroeste 0 -- -- 79
2019-06-02 04:00:00 19 4 Noroeste 31 Oeste 0 -- -- 69
2019-06-02 03:00:00 22.1 23 Oeste 40 Oeste 0 -- -- 38
2019-06-02 02:00:00 18 23 Oeste 30 Oeste 0 -- -- 71
2019-06-02 01:00:00 18.5 21 Oeste 37 Oeste 0 -- -- 68
2019-06-02 00:00:00 19.3 23 Oeste 41 Oeste 0 -- -- 63
2019-06-01 23:00:00 20.9 27 Oeste 40 Oeste 0 -- -- 50
2019-06-01 22:00:00 20.4 23 Oeste 42 Sudoeste 0 -- -- 57
2019-06-01 21:00:00 20.4 23 Oeste 31 Oeste 0 -- -- 72
2019-06-01 20:00:00 21.7 23 Oeste 31 Oeste 0 -- -- 76
2019-06-01 19:00:00 28 5 Sudeste 22 Sudeste 0 -- -- 41
2019-06-01 18:00:00 27.3 14 Sudeste 22 Sudeste 0 -- -- 44
2019-06-01 17:00:00 27.3 14 Sudeste 23 Sudeste 0 -- -- 44
2019-06-01 16:00:00 27.6 14 Sudeste 23 Sudeste 0 -- -- 43
2019-06-01 15:00:00 26 17 Sudeste 23 Sudeste 0 -- -- 50
2019-06-01 14:00:00 25.8 14 Sudeste 21 Sudeste 0 -- -- 50
2019-06-01 13:00:00 27.1 13 Sudeste 18 Este 0 -- -- 50
2019-06-01 12:00:00 26.3 10 Sudeste 15 Este 0 -- -- 52
2019-06-01 11:00:00 27.3 5 Este 10 Este 0 -- -- 54
2019-06-01 10:00:00 26.5 5 Sudeste 11 Este 0 -- -- 52
2019-06-01 09:00:00 26.2 6 Este 10 Sudeste 0 -- -- 48
2019-06-01 08:00:00 24.1 0 Calma 10 Sudeste 0 -- -- 66
2019-06-01 07:00:00 20.8 7 Sudeste 14 Sudeste 0 -- -- 69
2019-06-01 06:00:00 19.1 9 Sudeste 19 Sudeste 0 -- -- 76
2019-06-01 05:00:00 20 10 Sudeste 17 Sudeste 0 -- -- 72
2019-06-01 04:00:00 21.2 10 Sudeste 19 Sudeste 0 -- -- 66
2019-06-01 03:00:00 19 5 Sudeste 22 Sudeste 0 -- -- 68
2019-06-01 02:00:00 18.9 16 Sudeste 24 Sudeste 0 -- -- 66
2019-06-01 01:00:00 21 16 Este 27 Sudeste 0 -- -- 55
2019-06-01 00:00:00 21.2 17 Sudeste 29 Sudeste 0 -- -- 55
2019-05-31 23:00:00 20.6 17 Sudeste 30 Sudeste 0 -- -- 59
2019-05-31 22:00:00 19.1 21 Este 33 Sudeste 0 -- -- 72
2019-05-31 21:00:00 19.8 21 Sudeste 35 Sudeste 0 -- -- 71
2019-05-31 20:00:00 20.6 21 Sudeste 33 Sudeste 0 -- -- 67
2019-05-31 19:00:00 20.7 21 Sudeste 37 Este 0 -- -- 69
2019-05-31 18:00:00 20.9 23 Sudeste 39 Sudeste 0 -- -- 68
2019-05-31 17:00:00 21.2 24 Sudeste 36 Este 0 -- -- 64
2019-05-31 16:00:00 21.8 22 Este 37 Este 0 -- -- 62
2019-05-31 15:00:00 21.5 22 Este 35 Este 0 -- -- 64
2019-05-31 14:00:00 19.9 21 Este 32 Este 0 -- -- 75
2019-05-31 13:00:00 18.7 25 Este 33 Este 0 -- -- 85
2019-05-31 12:00:00 18.9 23 Este 36 Este 0 -- -- 82
2019-05-31 11:00:00 18.6 24 Este 31 Este 0 -- -- 80
2019-05-31 10:00:00 17.7 19 Este 29 Sudeste 0 -- -- 81
2019-05-31 09:00:00 18 18 Este 27 Este 0 -- -- 81
2019-05-31 08:00:00 17.3 18 Este 26 Este 0 -- -- 80
2019-05-31 07:00:00 15.4 14 Este 21 Sudeste 0 -- -- 85
2019-05-31 06:00:00 15.4 12 Este 19 Este 0 -- -- 84
2019-05-31 05:00:00 15.8 12 Este 18 Sudeste 0 -- -- 82
2019-05-31 04:00:00 15.9 12 Sudeste 21 Sudeste 0 -- -- 82
2019-05-31 03:00:00 16.7 12 Este 22 Sudeste 0 -- -- 78
2019-05-31 02:00:00 17.5 17 Este 29 Este 0 -- -- 75
2019-05-31 01:00:00 17 18 Sudeste 29 Este 0 -- -- 75
2019-05-31 00:00:00 15.8 19 Este 32 Este 0 -- -- 82
2019-05-30 23:00:00 15.6 21 Este 30 Este 0 -- -- 88
2019-05-30 22:00:00 15.7 21 Este 36 Este 0 -- -- 89
2019-05-30 21:00:00 16.6 24 Este 36 Sudeste 0 -- -- 83
2019-05-30 20:00:00 17.1 23 Este 32 Sudeste 0 -- -- 80
2019-05-30 19:00:00 17.4 21 Este 30 Sudeste 0 -- -- 80
2019-05-30 18:00:00 17.9 19 Este 28 Este 0 -- -- 79
2019-05-30 17:00:00 18.1 20 Este 30 Este 0 -- -- 77
2019-05-30 16:00:00 18.3 17 Este 30 Sudeste 0 -- -- 77
2019-05-30 15:00:00 18 21 Este 31 Este 0 -- -- 76
2019-05-30 14:00:00 17.9 17 Este 27 Este 0 -- -- 75
2019-05-30 13:00:00 17.4 17 Este 26 Este 0 -- -- 76
2019-05-30 12:00:00 16.9 19 Este 29 Este 0 -- -- 74
2019-05-30 11:00:00 17.1 19 Este 28 Este 0 -- -- 71
2019-05-30 10:00:00 16.3 15 Este 24 Este 0 -- -- 71
2019-05-30 09:00:00 15.8 13 Este 27 Este 0 -- -- 65
2019-05-30 08:00:00 14.6 12 Sudeste 20 Sudeste 0 -- -- 73
2019-05-30 07:00:00 13.8 13 Sudeste 22 Sudeste 0 -- -- 65
2019-05-30 06:00:00 13.1 13 Sudeste 23 Sudeste 0 -- -- 71
2019-05-30 05:00:00 12.9 14 Sudeste 25 Sudeste 0 -- -- 79
2019-05-30 04:00:00 12.9 13 Sudeste 23 Sudeste 0 -- -- 84
2019-05-30 03:00:00 13.1 14 Sudeste 24 Sudeste 0 -- -- 89
2019-05-30 02:00:00 13.1 12 Este 19 Sudeste 0 -- -- 86
2019-05-30 01:00:00 13.2 10 Sudeste 19 Sudeste 0 -- -- 86
2019-05-30 00:00:00 13.4 10 Sudeste 19 Este 0 -- -- 90
2019-05-29 23:00:00 13 12 Este 17 Este 0 -- -- 91
2019-05-29 22:00:00 13.7 9 Sudeste 21 Sudeste 0 -- -- 87
2019-05-29 21:00:00 15.1 12 Sudeste 17 Sudeste 0 -- -- 80
2019-05-29 20:00:00 16.5 10 Este 13 Este 0 -- -- 74
2019-05-29 19:00:00 16.6 8 Este 12 Este 0 -- -- 72
2019-05-29 18:00:00 17.3 4 Norte 12 Noroeste 0 -- -- 72
2019-05-29 17:00:00 16.9 11 Noroeste 17 Noroeste 0 -- -- 75
2019-05-29 16:00:00 16.8 13 Noroeste 17 Oeste 0 -- -- 77
2019-05-29 15:00:00 16.5 13 Oeste 16 Noroeste 0 -- -- 76
2019-05-29 14:00:00 16.5 12 Noroeste 15 Noroeste 0 -- -- 75
2019-05-29 13:00:00 16.2 10 Noroeste 14 Oeste 0 -- -- 76
2019-05-29 12:00:00 16 8 Noroeste 15 Oeste 0 -- -- 76
2019-05-29 11:00:00 15.1 12 Oeste 15 Noroeste 0 -- -- 79
2019-05-29 10:00:00 14.4 13 Noroeste 21 Noroeste 0 -- -- 82
2019-05-29 09:00:00 14 15 Noroeste 21 Noroeste 0 -- -- 82
2019-05-29 08:00:00 13.6 15 Noroeste 25 Noroeste 0 -- -- 83
2019-05-29 07:00:00 13.1 19 Noroeste 34 Oeste 0 -- -- 85
2019-05-29 06:00:00 12.8 24 Oeste 44 Noroeste 0 -- -- 99
2019-05-29 05:00:00 12.6 34 Noroeste 57 Oeste 3.2 -- -- 99
2019-05-29 04:00:00 13.4 34 Oeste 57 Oeste 0 -- -- 91
2019-05-29 03:00:00 14 43 Oeste 51 Oeste 0 -- -- 87
2019-05-29 02:00:00 14 34 Oeste 46 Oeste 0 -- -- 85
2019-05-29 01:00:00 13.9 36 Oeste 46 Oeste 0 -- -- 85
2019-05-29 00:00:00 13.9 35 Noroeste 46 Oeste 0 -- -- 83
2019-05-28 23:00:00 13.9 37 Oeste 48 Oeste 0 -- -- 84
2019-05-28 22:00:00 14 37 Oeste 55 Oeste 0 -- -- 81
2019-05-28 21:00:00 14.3 41 Oeste 50 Oeste 0 -- -- 77
2019-05-28 20:00:00 14.7 39 Noroeste 57 Oeste 0 -- -- 80
2019-05-28 19:00:00 14.5 47 Oeste 59 Oeste 0 -- -- 80
2019-05-28 18:00:00 15.1 49 Oeste 59 Oeste 0 -- -- 78
2019-05-28 17:00:00 15.2 44 Oeste 52 Oeste 0 -- -- 76
2019-05-28 16:00:00 15.3 44 Oeste 54 Oeste 0 -- -- 77
2019-05-28 15:00:00 14.6 46 Oeste 59 Oeste 0 -- -- 76
2019-05-28 14:00:00 14.2 48 Oeste 55 Oeste 0 -- -- 86
2019-05-28 13:00:00 14.3 39 Oeste 64 Noroeste 0 -- -- 87
2019-05-28 12:00:00 14.4 49 Oeste 63 Oeste 0 -- -- 86
2019-05-28 11:00:00 14.6 35 Oeste 45 Oeste 0 -- -- 85
2019-05-28 10:00:00 14.3 33 Oeste 52 Oeste 0 -- -- 86
2019-05-28 09:00:00 12.6 38 Oeste 60 Oeste 0.2 -- -- 89
2019-05-28 08:00:00 13.2 42 Oeste 54 Oeste 0 -- -- 90
2019-05-28 07:00:00 13.5 41 Oeste 50 Oeste 0 -- -- 85
2019-05-28 06:00:00 13.4 38 Oeste 48 Oeste 0 -- -- 85
2019-05-28 05:00:00 13.5 40 Oeste 47 Oeste 0 -- -- 84
2019-05-28 04:00:00 13.5 37 Oeste 48 Oeste 0 -- -- 84
2019-05-28 03:00:00 13.5 35 Oeste 44 Oeste 0 -- -- 85
2019-05-28 02:00:00 13.5 34 Oeste 47 Oeste 0 -- -- 84
2019-05-28 01:00:00 13.5 40 Oeste 46 Oeste 0 -- -- 86
2019-05-28 00:00:00 13.6 38 Oeste 46 Oeste 0 -- -- 85
2019-05-27 23:00:00 13.6 32 Oeste 39 Oeste 0 -- -- 85
2019-05-27 22:00:00 13.8 31 Oeste 41 Oeste 0 -- -- 85
2019-05-27 21:00:00 14 31 Oeste 44 Oeste 0 -- -- 89
2019-05-27 20:00:00 14.1 37 Oeste 46 Oeste 0.2 -- -- 89
2019-05-27 19:00:00 14.3 31 Oeste 37 Oeste 0 -- -- 91
2019-05-27 18:00:00 14.2 27 Noroeste 42 Oeste 0.4 -- -- 99
2019-05-27 17:00:00 14.6 26 Oeste 42 Oeste 0 -- -- 100
2019-05-27 16:00:00 14.3 37 Oeste 62 Oeste 0 -- -- 100
2019-05-27 15:00:00 13.9 37 Oeste 53 Oeste 0.4 -- -- 99
2019-05-27 14:00:00 13.9 23 Oeste 36 Oeste 0.2 -- -- 97
2019-05-27 13:00:00 13.9 24 Oeste 40 Oeste 0.2 -- -- 96
2019-05-27 12:00:00 13.3 27 Oeste 40 Oeste 0.2 -- -- 96
2019-05-27 11:00:00 13.9 28 Oeste 39 Oeste 0 -- -- 89
2019-05-27 10:00:00 13.3 18 Oeste 35 Oeste 0 -- -- 93
2019-05-27 09:00:00 13 19 Oeste 36 Oeste 0 -- -- 97
2019-05-27 08:00:00 12.9 23 Oeste 38 Oeste 0 -- -- 96
2019-05-27 07:00:00 12.7 18 Oeste 30 Oeste 1 -- -- 99
2019-05-27 06:00:00 12.8 27 Oeste 43 Oeste 0.8 -- -- 98
2019-05-27 05:00:00 12.8 26 Oeste 44 Oeste 0 -- -- 96
2019-05-27 04:00:00 13.2 23 Oeste 35 Oeste 0 -- -- 92
2019-05-27 03:00:00 13.2 20 Oeste 41 Oeste 0 -- -- 93
2019-05-27 02:00:00 13.1 14 Oeste 26 Oeste 0 -- -- 94
2019-05-27 01:00:00 13.2 17 Oeste 32 Oeste 0 -- -- 96
2019-05-27 00:00:00 13.4 24 Oeste 33 Oeste 0 -- -- 97
2019-05-26 23:00:00 13.1 24 Oeste 43 Oeste 0 -- -- 98
2019-05-26 22:00:00 13.1 17 Oeste 27 Oeste 0 -- -- 97
2019-05-26 21:00:00 13.4 15 Oeste 35 Oeste 0 -- -- 96
2019-05-26 20:00:00 13.6 27 Oeste 32 Oeste 0 -- -- 96
2019-05-26 19:00:00 13.4 29 Oeste 34 Oeste 0 -- -- 97
2019-05-26 18:00:00 13.6 26 Oeste 39 Oeste 0 -- -- 98
2019-05-26 17:00:00 14.3 30 Oeste 38 Oeste 0 -- -- 92
2019-05-26 16:00:00 14.5 24 Oeste 32 Oeste 0 -- -- 95
2019-05-26 15:00:00 14.1 28 Oeste 42 Oeste 0.2 -- -- 96
2019-05-26 14:00:00 13.6 39 Oeste 46 Oeste 0.2 -- -- 98
2019-05-26 13:00:00 14 33 Oeste 45 Oeste 0 -- -- 95
2019-05-26 12:00:00 13.8 28 Oeste 40 Oeste 0 -- -- 97
2019-05-26 11:00:00 13 30 Noroeste 49 Oeste 0.4 -- -- 98
2019-05-26 10:00:00 13.3 22 Oeste 35 Sudoeste 0 -- -- 98
2019-05-26 09:00:00 12.8 23 Oeste 35 Oeste 0 -- -- 97
2019-05-26 08:00:00 12.8 24 Oeste 36 Oeste 0 -- -- 96
2019-05-26 07:00:00 12.7 24 Oeste 36 Oeste 0 -- -- 95
2019-05-26 06:00:00 13 19 Oeste 33 Oeste 0 -- -- 86
2019-05-26 05:00:00 13 26 Oeste 43 Oeste 0 -- -- 91
2019-05-26 04:00:00 13.4 30 Oeste 38 Oeste 0 -- -- 93
2019-05-26 03:00:00 13.7 24 Oeste 30 Oeste 0 -- -- 89
2019-05-26 02:00:00 13.7 21 Oeste 26 Oeste 0 -- -- 88
2019-05-26 01:00:00 13.8 21 Oeste 28 Oeste 0 -- -- 88
2019-05-26 00:00:00 13.8 24 Oeste 34 Oeste 0 -- -- 85